sensor_id;sensor_type;location;lat;lon;timestamp;P1;durP1;ratioP1;P2;durP2;ratioP2
17398;SDS011;8817;48.170;8.592;2023-04-12T00:02:20;5.40;;;5.10;;
17398;SDS011;8817;48.170;8.592;2023-04-12T00:04:47;5.90;;;5.37;;
17398;SDS011;8817;48.170;8.592;2023-04-12T00:07:19;5.57;;;5.37;;
17398;SDS011;8817;48.170;8.592;2023-04-12T00:09:46;5.70;;;5.40;;
17398;SDS011;8817;48.170;8.592;2023-04-12T00:12:13;5.40;;;5.20;;
17398;SDS011;8817;48.170;8.592;2023-04-12T00:14:41;5.47;;;5.17;;
17398;SDS011;8817;48.170;8.592;2023-04-12T00:17:08;5.90;;;5.30;;
17398;SDS011;8817;48.170;8.592;2023-04-12T00:19:37;10.40;;;5.37;;
17398;SDS011;8817;48.170;8.592;2023-04-12T00:22:06;5.60;;;5.30;;
17398;SDS011;8817;48.170;8.592;2023-04-12T00:24:33;5.47;;;5.17;;
17398;SDS011;8817;48.170;8.592;2023-04-12T00:27:00;5.90;;;5.40;;
17398;SDS011;8817;48.170;8.592;2023-04-12T00:29:27;5.73;;;5.33;;
17398;SDS011;8817;48.170;8.592;2023-04-12T00:31:54;5.70;;;5.30;;
17398;SDS011;8817;48.170;8.592;2023-04-12T00:34:21;5.93;;;5.40;;
17398;SDS011;8817;48.170;8.592;2023-04-12T00:36:50;5.83;;;5.40;;
17398;SDS011;8817;48.170;8.592;2023-04-12T00:39:16;5.70;;;5.30;;
17398;SDS011;8817;48.170;8.592;2023-04-12T00:41:43;5.40;;;5.10;;
17398;SDS011;8817;48.170;8.592;2023-04-12T00:44:10;5.37;;;5.10;;
17398;SDS011;8817;48.170;8.592;2023-04-12T00:46:37;5.70;;;5.30;;
17398;SDS011;8817;48.170;8.592;2023-04-12T00:49:05;5.50;;;5.00;;
17398;SDS011;8817;48.170;8.592;2023-04-12T00:51:32;5.27;;;4.97;;
17398;SDS011;8817;48.170;8.592;2023-04-12T00:54:00;5.50;;;5.20;;
17398;SDS011;8817;48.170;8.592;2023-04-12T00:56:28;5.30;;;5.10;;
17398;SDS011;8817;48.170;8.592;2023-04-12T00:58:56;4.90;;;4.70;;
17398;SDS011;8817;48.170;8.592;2023-04-12T01:01:23;5.30;;;5.00;;
17398;SDS011;8817;48.170;8.592;2023-04-12T01:03:52;5.10;;;4.90;;
17398;SDS011;8817;48.170;8.592;2023-04-12T01:06:27;5.23;;;5.03;;
17398;SDS011;8817;48.170;8.592;2023-04-12T01:09:07;5.40;;;5.00;;
17398;SDS011;8817;48.170;8.592;2023-04-12T01:11:42;5.90;;;5.40;;
17398;SDS011;8817;48.170;8.592;2023-04-12T01:14:14;5.50;;;5.20;;
17398;SDS011;8817;48.170;8.592;2023-04-12T01:16:48;5.87;;;5.57;;
17398;SDS011;8817;48.170;8.592;2023-04-12T01:19:26;5.50;;;5.20;;
17398;SDS011;8817;48.170;8.592;2023-04-12T01:22:05;5.70;;;5.40;;
17398;SDS011;8817;48.170;8.592;2023-04-12T01:24:45;5.30;;;5.10;;
17398;SDS011;8817;48.170;8.592;2023-04-12T01:27:23;5.30;;;5.00;;
17398;SDS011;8817;48.170;8.592;2023-04-12T01:30:00;5.10;;;4.80;;
17398;SDS011;8817;48.170;8.592;2023-04-12T01:32:28;5.43;;;5.10;;
17398;SDS011;8817;48.170;8.592;2023-04-12T01:34:56;5.47;;;5.17;;
17398;SDS011;8817;48.170;8.592;2023-04-12T01:37:25;4.97;;;4.83;;
17398;SDS011;8817;48.170;8.592;2023-04-12T01:39:52;5.70;;;5.30;;
17398;SDS011;8817;48.170;8.592;2023-04-12T01:42:19;5.43;;;5.13;;
17398;SDS011;8817;48.170;8.592;2023-04-12T01:44:48;5.73;;;5.27;;
17398;SDS011;8817;48.170;8.592;2023-04-12T01:47:15;5.43;;;5.20;;
17398;SDS011;8817;48.170;8.592;2023-04-12T01:49:44;5.20;;;5.00;;
17398;SDS011;8817;48.170;8.592;2023-04-12T01:52:19;5.57;;;5.30;;
17398;SDS011;8817;48.170;8.592;2023-04-12T01:54:48;5.90;;;5.60;;
17398;SDS011;8817;48.170;8.592;2023-04-12T01:57:19;5.53;;;5.33;;
17398;SDS011;8817;48.170;8.592;2023-04-12T01:59:49;5.73;;;5.43;;
17398;SDS011;8817;48.170;8.592;2023-04-12T02:02:16;5.87;;;5.50;;
17398;SDS011;8817;48.170;8.592;2023-04-12T02:04:44;6.10;;;5.70;;
17398;SDS011;8817;48.170;8.592;2023-04-12T02:07:12;5.87;;;5.60;;
17398;SDS011;8817;48.170;8.592;2023-04-12T02:09:41;5.87;;;5.57;;
17398;SDS011;8817;48.170;8.592;2023-04-12T02:12:08;5.73;;;5.43;;
17398;SDS011;8817;48.170;8.592;2023-04-12T02:14:34;5.60;;;5.40;;
17398;SDS011;8817;48.170;8.592;2023-04-12T02:17:03;5.70;;;5.40;;
17398;SDS011;8817;48.170;8.592;2023-04-12T02:19:32;7.63;;;5.40;;
17398;SDS011;8817;48.170;8.592;2023-04-12T02:21:58;5.90;;;5.53;;
17398;SDS011;8817;48.170;8.592;2023-04-12T02:24:26;5.67;;;5.37;;
17398;SDS011;8817;48.170;8.592;2023-04-12T02:26:53;5.40;;;5.20;;
17398;SDS011;8817;48.170;8.592;2023-04-12T02:29:20;5.50;;;5.30;;
17398;SDS011;8817;48.170;8.592;2023-04-12T02:31:47;5.50;;;5.10;;
17398;SDS011;8817;48.170;8.592;2023-04-12T02:34:16;5.80;;;5.40;;
17398;SDS011;8817;48.170;8.592;2023-04-12T02:36:45;5.70;;;5.40;;
17398;SDS011;8817;48.170;8.592;2023-04-12T02:39:12;5.80;;;5.47;;
17398;SDS011;8817;48.170;8.592;2023-04-12T02:41:42;5.80;;;5.50;;
17398;SDS011;8817;48.170;8.592;2023-04-12T02:44:09;5.80;;;5.30;;
17398;SDS011;8817;48.170;8.592;2023-04-12T02:46:36;5.83;;;5.53;;
17398;SDS011;8817;48.170;8.592;2023-04-12T02:49:03;5.43;;;5.13;;
17398;SDS011;8817;48.170;8.592;2023-04-12T02:51:31;5.60;;;5.30;;
17398;SDS011;8817;48.170;8.592;2023-04-12T02:53:59;5.50;;;5.20;;
17398;SDS011;8817;48.170;8.592;2023-04-12T02:56:26;5.33;;;5.13;;
17398;SDS011;8817;48.170;8.592;2023-04-12T02:58:54;5.80;;;5.50;;
17398;SDS011;8817;48.170;8.592;2023-04-12T03:01:21;5.80;;;5.40;;
17398;SDS011;8817;48.170;8.592;2023-04-12T03:03:47;6.00;;;5.60;;
17398;SDS011;8817;48.170;8.592;2023-04-12T03:06:14;5.53;;;5.33;;
17398;SDS011;8817;48.170;8.592;2023-04-12T03:08:43;6.00;;;5.60;;
17398;SDS011;8817;48.170;8.592;2023-04-12T03:11:09;5.73;;;5.43;;
17398;SDS011;8817;48.170;8.592;2023-04-12T03:13:36;5.47;;;5.27;;
17398;SDS011;8817;48.170;8.592;2023-04-12T03:16:18;5.53;;;5.33;;
17398;SDS011;8817;48.170;8.592;2023-04-12T03:18:47;5.80;;;5.50;;
17398;SDS011;8817;48.170;8.592;2023-04-12T03:21:15;5.67;;;5.43;;
17398;SDS011;8817;48.170;8.592;2023-04-12T03:23:44;5.60;;;5.30;;
17398;SDS011;8817;48.170;8.592;2023-04-12T03:26:11;5.57;;;5.27;;
17398;SDS011;8817;48.170;8.592;2023-04-12T03:28:39;5.80;;;5.50;;
17398;SDS011;8817;48.170;8.592;2023-04-12T03:31:06;5.87;;;5.47;;
17398;SDS011;8817;48.170;8.592;2023-04-12T03:33:34;5.77;;;5.43;;
17398;SDS011;8817;48.170;8.592;2023-04-12T03:36:01;5.63;;;5.40;;
17398;SDS011;8817;48.170;8.592;2023-04-12T03:38:28;5.80;;;5.50;;
17398;SDS011;8817;48.170;8.592;2023-04-12T03:40:57;5.40;;;5.20;;
17398;SDS011;8817;48.170;8.592;2023-04-12T03:43:23;5.67;;;5.27;;
17398;SDS011;8817;48.170;8.592;2023-04-12T03:45:51;5.40;;;5.20;;
17398;SDS011;8817;48.170;8.592;2023-04-12T03:48:18;5.60;;;5.30;;
17398;SDS011;8817;48.170;8.592;2023-04-12T03:50:45;5.30;;;5.20;;
17398;SDS011;8817;48.170;8.592;2023-04-12T03:53:12;5.50;;;5.30;;
17398;SDS011;8817;48.170;8.592;2023-04-12T03:55:39;5.93;;;5.70;;
17398;SDS011;8817;48.170;8.592;2023-04-12T03:58:07;5.47;;;5.27;;
17398;SDS011;8817;48.170;8.592;2023-04-12T04:00:37;5.57;;;5.37;;
17398;SDS011;8817;48.170;8.592;2023-04-12T04:03:04;6.00;;;5.70;;
17398;SDS011;8817;48.170;8.592;2023-04-12T04:05:31;5.70;;;5.50;;
17398;SDS011;8817;48.170;8.592;2023-04-12T04:07:58;7.17;;;5.90;;
17398;SDS011;8817;48.170;8.592;2023-04-12T04:10:26;5.90;;;5.60;;
17398;SDS011;8817;48.170;8.592;2023-04-12T04:12:53;6.10;;;5.80;;
17398;SDS011;8817;48.170;8.592;2023-04-12T04:15:21;5.70;;;5.40;;
17398;SDS011;8817;48.170;8.592;2023-04-12T04:17:50;5.60;;;5.40;;
17398;SDS011;8817;48.170;8.592;2023-04-12T04:20:17;6.30;;;5.97;;
17398;SDS011;8817;48.170;8.592;2023-04-12T04:22:44;6.40;;;5.90;;
17398;SDS011;8817;48.170;8.592;2023-04-12T04:25:12;5.90;;;5.60;;
17398;SDS011;8817;48.170;8.592;2023-04-12T04:27:39;5.70;;;5.50;;
17398;SDS011;8817;48.170;8.592;2023-04-12T04:30:08;6.07;;;5.77;;
17398;SDS011;8817;48.170;8.592;2023-04-12T04:32:37;6.20;;;5.80;;
17398;SDS011;8817;48.170;8.592;2023-04-12T04:35:04;6.10;;;5.80;;
17398;SDS011;8817;48.170;8.592;2023-04-12T04:37:32;6.07;;;5.67;;
17398;SDS011;8817;48.170;8.592;2023-04-12T04:40:00;6.10;;;5.80;;
17398;SDS011;8817;48.170;8.592;2023-04-12T04:42:32;6.03;;;5.70;;
17398;SDS011;8817;48.170;8.592;2023-04-12T04:44:58;6.07;;;5.50;;
17398;SDS011;8817;48.170;8.592;2023-04-12T04:47:28;5.77;;;5.53;;
17398;SDS011;8817;48.170;8.592;2023-04-12T04:49:58;6.00;;;5.70;;
17398;SDS011;8817;48.170;8.592;2023-04-12T04:52:25;6.07;;;5.77;;
17398;SDS011;8817;48.170;8.592;2023-04-12T04:54:52;6.13;;;5.83;;
17398;SDS011;8817;48.170;8.592;2023-04-12T04:57:21;5.77;;;5.57;;
17398;SDS011;8817;48.170;8.592;2023-04-12T04:59:48;6.00;;;5.70;;
17398;SDS011;8817;48.170;8.592;2023-04-12T05:02:15;6.00;;;5.80;;
17398;SDS011;8817;48.170;8.592;2023-04-12T05:04:42;6.53;;;6.20;;
17398;SDS011;8817;48.170;8.592;2023-04-12T05:07:10;6.30;;;6.00;;
17398;SDS011;8817;48.170;8.592;2023-04-12T05:09:38;6.40;;;6.00;;
17398;SDS011;8817;48.170;8.592;2023-04-12T05:12:05;6.27;;;5.97;;
17398;SDS011;8817;48.170;8.592;2023-04-12T05:14:32;6.03;;;5.80;;
17398;SDS011;8817;48.170;8.592;2023-04-12T05:16:59;6.00;;;5.70;;
17398;SDS011;8817;48.170;8.592;2023-04-12T05:19:26;7.20;;;6.63;;
17398;SDS011;8817;48.170;8.592;2023-04-12T05:21:53;6.30;;;6.00;;
17398;SDS011;8817;48.170;8.592;2023-04-12T05:24:21;6.57;;;6.17;;
17398;SDS011;8817;48.170;8.592;2023-04-12T05:26:49;6.37;;;5.97;;
17398;SDS011;8817;48.170;8.592;2023-04-12T05:29:16;6.10;;;5.70;;
17398;SDS011;8817;48.170;8.592;2023-04-12T05:31:42;6.47;;;5.70;;
17398;SDS011;8817;48.170;8.592;2023-04-12T05:34:09;5.80;;;5.50;;
17398;SDS011;8817;48.170;8.592;2023-04-12T05:36:36;5.90;;;5.70;;
17398;SDS011;8817;48.170;8.592;2023-04-12T05:39:03;5.90;;;5.60;;
17398;SDS011;8817;48.170;8.592;2023-04-12T05:41:31;5.80;;;5.60;;
17398;SDS011;8817;48.170;8.592;2023-04-12T05:43:58;6.23;;;5.93;;
17398;SDS011;8817;48.170;8.592;2023-04-12T05:46:25;6.00;;;5.60;;
17398;SDS011;8817;48.170;8.592;2023-04-12T05:48:52;6.17;;;5.67;;
17398;SDS011;8817;48.170;8.592;2023-04-12T05:51:19;5.60;;;5.40;;
17398;SDS011;8817;48.170;8.592;2023-04-12T05:53:45;6.10;;;5.60;;
17398;SDS011;8817;48.170;8.592;2023-04-12T05:56:12;6.07;;;5.77;;
17398;SDS011;8817;48.170;8.592;2023-04-12T05:58:41;5.60;;;5.40;;
17398;SDS011;8817;48.170;8.592;2023-04-12T06:01:08;5.63;;;5.43;;
17398;SDS011;8817;48.170;8.592;2023-04-12T06:03:35;5.70;;;5.50;;
17398;SDS011;8817;48.170;8.592;2023-04-12T06:06:05;6.10;;;5.80;;
17398;SDS011;8817;48.170;8.592;2023-04-12T06:08:33;6.23;;;6.03;;
17398;SDS011;8817;48.170;8.592;2023-04-12T06:11:02;6.30;;;6.00;;
17398;SDS011;8817;48.170;8.592;2023-04-12T06:13:29;6.00;;;5.80;;
17398;SDS011;8817;48.170;8.592;2023-04-12T06:15:57;5.90;;;5.70;;
17398;SDS011;8817;48.170;8.592;2023-04-12T06:18:24;6.37;;;5.90;;
17398;SDS011;8817;48.170;8.592;2023-04-12T06:20:51;6.13;;;5.90;;
17398;SDS011;8817;48.170;8.592;2023-04-12T06:23:17;6.00;;;5.80;;
17398;SDS011;8817;48.170;8.592;2023-04-12T06:25:45;6.40;;;6.00;;
17398;SDS011;8817;48.170;8.592;2023-04-12T06:28:13;6.33;;;6.03;;
17398;SDS011;8817;48.170;8.592;2023-04-12T06:30:40;6.00;;;5.80;;
17398;SDS011;8817;48.170;8.592;2023-04-12T06:33:09;6.00;;;5.80;;
17398;SDS011;8817;48.170;8.592;2023-04-12T06:35:37;6.57;;;6.17;;
17398;SDS011;8817;48.170;8.592;2023-04-12T06:38:04;6.20;;;6.00;;
17398;SDS011;8817;48.170;8.592;2023-04-12T06:40:31;6.17;;;5.87;;
17398;SDS011;8817;48.170;8.592;2023-04-12T06:42:58;6.10;;;5.90;;
17398;SDS011;8817;48.170;8.592;2023-04-12T06:45:25;6.10;;;5.90;;
17398;SDS011;8817;48.170;8.592;2023-04-12T06:47:52;6.40;;;6.10;;
17398;SDS011;8817;48.170;8.592;2023-04-12T06:50:22;6.20;;;5.90;;
17398;SDS011;8817;48.170;8.592;2023-04-12T06:52:50;6.40;;;6.10;;
17398;SDS011;8817;48.170;8.592;2023-04-12T06:55:17;5.93;;;5.73;;
17398;SDS011;8817;48.170;8.592;2023-04-12T06:57:44;6.40;;;6.10;;
17398;SDS011;8817;48.170;8.592;2023-04-12T07:00:11;6.27;;;5.97;;
17398;SDS011;8817;48.170;8.592;2023-04-12T07:02:39;6.00;;;5.80;;
17398;SDS011;8817;48.170;8.592;2023-04-12T07:05:06;6.17;;;5.87;;
17398;SDS011;8817;48.170;8.592;2023-04-12T07:07:35;6.77;;;6.40;;
17398;SDS011;8817;48.170;8.592;2023-04-12T07:10:02;6.67;;;6.27;;
17398;SDS011;8817;48.170;8.592;2023-04-12T07:12:29;6.57;;;6.00;;
17398;SDS011;8817;48.170;8.592;2023-04-12T07:14:56;6.40;;;6.10;;
17398;SDS011;8817;48.170;8.592;2023-04-12T07:17:23;6.70;;;6.20;;
17398;SDS011;8817;48.170;8.592;2023-04-12T07:19:51;6.43;;;6.13;;
17398;SDS011;8817;48.170;8.592;2023-04-12T07:22:18;6.60;;;6.30;;
17398;SDS011;8817;48.170;8.592;2023-04-12T07:24:46;6.77;;;6.20;;
17398;SDS011;8817;48.170;8.592;2023-04-12T07:27:14;6.50;;;6.20;;
17398;SDS011;8817;48.170;8.592;2023-04-12T07:29:41;6.20;;;6.00;;
17398;SDS011;8817;48.170;8.592;2023-04-12T07:32:08;6.47;;;6.03;;
17398;SDS011;8817;48.170;8.592;2023-04-12T07:34:35;6.33;;;6.03;;
17398;SDS011;8817;48.170;8.592;2023-04-12T07:37:03;6.33;;;6.03;;
17398;SDS011;8817;48.170;8.592;2023-04-12T07:39:30;6.57;;;6.17;;
17398;SDS011;8817;48.170;8.592;2023-04-12T07:42:00;6.17;;;5.97;;
17398;SDS011;8817;48.170;8.592;2023-04-12T07:44:27;6.50;;;6.20;;
17398;SDS011;8817;48.170;8.592;2023-04-12T07:46:54;6.60;;;6.30;;
17398;SDS011;8817;48.170;8.592;2023-04-12T07:49:20;6.30;;;6.00;;
17398;SDS011;8817;48.170;8.592;2023-04-12T07:51:47;6.73;;;6.43;;
17398;SDS011;8817;48.170;8.592;2023-04-12T07:54:14;6.80;;;6.43;;
17398;SDS011;8817;48.170;8.592;2023-04-12T07:56:55;6.73;;;6.33;;
17398;SDS011;8817;48.170;8.592;2023-04-12T07:59:24;7.07;;;6.47;;
17398;SDS011;8817;48.170;8.592;2023-04-12T08:01:51;6.57;;;6.27;;
17398;SDS011;8817;48.170;8.592;2023-04-12T08:04:18;6.50;;;6.20;;
17398;SDS011;8817;48.170;8.592;2023-04-12T08:06:45;6.87;;;6.47;;
17398;SDS011;8817;48.170;8.592;2023-04-12T08:09:12;6.77;;;6.33;;
17398;SDS011;8817;48.170;8.592;2023-04-12T08:11:39;6.97;;;6.50;;
17398;SDS011;8817;48.170;8.592;2023-04-12T08:14:05;6.60;;;6.20;;
17398;SDS011;8817;48.170;8.592;2023-04-12T08:16:34;6.33;;;6.03;;
17398;SDS011;8817;48.170;8.592;2023-04-12T08:19:02;6.60;;;6.20;;
17398;SDS011;8817;48.170;8.592;2023-04-12T08:21:29;6.57;;;6.20;;
17398;SDS011;8817;48.170;8.592;2023-04-12T08:23:56;7.23;;;6.53;;
17398;SDS011;8817;48.170;8.592;2023-04-12T08:26:23;6.83;;;6.33;;
17398;SDS011;8817;48.170;8.592;2023-04-12T08:28:50;6.40;;;6.10;;
17398;SDS011;8817;48.170;8.592;2023-04-12T08:31:17;6.43;;;6.03;;
17398;SDS011;8817;48.170;8.592;2023-04-12T08:33:46;6.40;;;6.10;;
17398;SDS011;8817;48.170;8.592;2023-04-12T08:36:12;6.20;;;5.83;;
17398;SDS011;8817;48.170;8.592;2023-04-12T08:38:39;6.70;;;6.30;;
17398;SDS011;8817;48.170;8.592;2023-04-12T08:41:06;6.73;;;6.30;;
17398;SDS011;8817;48.170;8.592;2023-04-12T08:43:33;6.37;;;5.97;;
17398;SDS011;8817;48.170;8.592;2023-04-12T08:46:02;6.53;;;6.20;;
17398;SDS011;8817;48.170;8.592;2023-04-12T08:48:29;6.17;;;5.97;;
17398;SDS011;8817;48.170;8.592;2023-04-12T08:50:58;6.73;;;6.33;;
17398;SDS011;8817;48.170;8.592;2023-04-12T08:53:26;6.40;;;5.90;;
17398;SDS011;8817;48.170;8.592;2023-04-12T08:55:53;6.63;;;6.17;;
17398;SDS011;8817;48.170;8.592;2023-04-12T08:58:20;6.53;;;6.07;;
17398;SDS011;8817;48.170;8.592;2023-04-12T09:00:49;7.03;;;6.63;;
17398;SDS011;8817;48.170;8.592;2023-04-12T09:03:16;6.47;;;6.07;;
17398;SDS011;8817;48.170;8.592;2023-04-12T09:05:43;6.20;;;5.90;;
17398;SDS011;8817;48.170;8.592;2023-04-12T09:08:11;6.30;;;6.00;;
17398;SDS011;8817;48.170;8.592;2023-04-12T09:10:38;6.50;;;6.10;;
17398;SDS011;8817;48.170;8.592;2023-04-12T09:13:06;6.53;;;6.13;;
17398;SDS011;8817;48.170;8.592;2023-04-12T09:15:34;6.50;;;6.10;;
17398;SDS011;8817;48.170;8.592;2023-04-12T09:18:06;6.50;;;6.10;;
17398;SDS011;8817;48.170;8.592;2023-04-12T09:20:34;6.93;;;6.50;;
17398;SDS011;8817;48.170;8.592;2023-04-12T09:23:14;6.97;;;6.47;;
17398;SDS011;8817;48.170;8.592;2023-04-12T09:25:43;6.10;;;5.90;;
17398;SDS011;8817;48.170;8.592;2023-04-12T09:28:19;6.30;;;6.00;;
17398;SDS011;8817;48.170;8.592;2023-04-12T09:30:47;6.60;;;6.20;;
17398;SDS011;8817;48.170;8.592;2023-04-12T09:33:17;6.50;;;6.00;;
17398;SDS011;8817;48.170;8.592;2023-04-12T09:35:44;5.90;;;5.70;;
17398;SDS011;8817;48.170;8.592;2023-04-12T09:38:11;6.63;;;6.00;;
17398;SDS011;8817;48.170;8.592;2023-04-12T09:40:40;5.90;;;5.50;;
17398;SDS011;8817;48.170;8.592;2023-04-12T09:43:07;6.00;;;5.60;;
17398;SDS011;8817;48.170;8.592;2023-04-12T09:45:35;5.17;;;5.07;;
17398;SDS011;8817;48.170;8.592;2023-04-12T09:48:04;6.20;;;5.93;;
17398;SDS011;8817;48.170;8.592;2023-04-12T09:50:32;5.83;;;5.47;;
17398;SDS011;8817;48.170;8.592;2023-04-12T09:52:59;6.00;;;5.60;;
17398;SDS011;8817;48.170;8.592;2023-04-12T09:55:27;5.33;;;5.20;;
17398;SDS011;8817;48.170;8.592;2023-04-12T09:57:59;5.73;;;5.43;;
17398;SDS011;8817;48.170;8.592;2023-04-12T10:00:28;5.70;;;5.30;;
17398;SDS011;8817;48.170;8.592;2023-04-12T10:02:58;5.33;;;4.83;;
17398;SDS011;8817;48.170;8.592;2023-04-12T10:05:26;5.33;;;5.03;;
17398;SDS011;8817;48.170;8.592;2023-04-12T10:07:53;5.27;;;5.07;;
17398;SDS011;8817;48.170;8.592;2023-04-12T10:10:21;5.53;;;5.30;;
17398;SDS011;8817;48.170;8.592;2023-04-12T10:12:48;5.20;;;5.00;;
17398;SDS011;8817;48.170;8.592;2023-04-12T10:15:17;5.37;;;5.17;;
17398;SDS011;8817;48.170;8.592;2023-04-12T10:17:46;5.30;;;5.00;;
17398;SDS011;8817;48.170;8.592;2023-04-12T10:20:15;5.37;;;5.17;;
17398;SDS011;8817;48.170;8.592;2023-04-12T10:22:44;5.30;;;5.10;;
17398;SDS011;8817;48.170;8.592;2023-04-12T10:25:12;5.30;;;5.10;;
17398;SDS011;8817;48.170;8.592;2023-04-12T10:27:40;5.20;;;5.10;;
17398;SDS011;8817;48.170;8.592;2023-04-12T10:30:25;5.73;;;5.20;;
17398;SDS011;8817;48.170;8.592;2023-04-12T10:33:11;5.23;;;5.03;;
17398;SDS011;8817;48.170;8.592;2023-04-12T10:38:28;5.40;;;5.20;;
17398;SDS011;8817;48.170;8.592;2023-04-12T10:41:14;5.20;;;5.00;;
17398;SDS011;8817;48.170;8.592;2023-04-12T10:43:42;5.17;;;5.07;;
17398;SDS011;8817;48.170;8.592;2023-04-12T10:49:18;5.63;;;5.33;;
17398;SDS011;8817;48.170;8.592;2023-04-12T10:52:09;5.37;;;5.17;;
17398;SDS011;8817;48.170;8.592;2023-04-12T10:54:38;5.23;;;5.03;;
17398;SDS011;8817;48.170;8.592;2023-04-12T10:57:05;5.37;;;5.20;;
17398;SDS011;8817;48.170;8.592;2023-04-12T10:59:51;5.00;;;4.90;;
17398;SDS011;8817;48.170;8.592;2023-04-12T11:02:22;5.33;;;5.10;;
17398;SDS011;8817;48.170;8.592;2023-04-12T11:05:02;5.17;;;5.00;;
17398;SDS011;8817;48.170;8.592;2023-04-12T11:07:42;4.77;;;4.67;;
17398;SDS011;8817;48.170;8.592;2023-04-12T11:10:13;5.10;;;4.90;;
17398;SDS011;8817;48.170;8.592;2023-04-12T11:12:41;4.90;;;4.80;;
17398;SDS011;8817;48.170;8.592;2023-04-12T11:15:14;4.83;;;4.73;;
17398;SDS011;8817;48.170;8.592;2023-04-12T11:17:43;5.28;;;5.18;;
17398;SDS011;8817;48.170;8.592;2023-04-12T11:20:19;5.00;;;4.90;;
17398;SDS011;8817;48.170;8.592;2023-04-12T11:22:45;4.90;;;4.80;;
17398;SDS011;8817;48.170;8.592;2023-04-12T11:25:15;5.10;;;4.90;;
17398;SDS011;8817;48.170;8.592;2023-04-12T11:27:47;5.17;;;5.07;;
17398;SDS011;8817;48.170;8.592;2023-04-12T11:30:14;5.13;;;5.00;;
17398;SDS011;8817;48.170;8.592;2023-04-12T11:32:44;5.07;;;4.97;;
17398;SDS011;8817;48.170;8.592;2023-04-12T11:35:13;5.27;;;5.17;;
17398;SDS011;8817;48.170;8.592;2023-04-12T11:37:40;5.20;;;5.10;;
17398;SDS011;8817;48.170;8.592;2023-04-12T11:40:08;5.47;;;5.30;;
17398;SDS011;8817;48.170;8.592;2023-04-12T11:42:37;5.33;;;5.03;;
17398;SDS011;8817;48.170;8.592;2023-04-12T11:45:05;5.57;;;5.00;;
17398;SDS011;8817;48.170;8.592;2023-04-12T11:47:34;5.33;;;5.23;;
17398;SDS011;8817;48.170;8.592;2023-04-12T11:50:08;5.10;;;5.00;;
17398;SDS011;8817;48.170;8.592;2023-04-12T11:52:36;5.30;;;5.10;;
17398;SDS011;8817;48.170;8.592;2023-04-12T11:55:03;5.20;;;5.10;;
17398;SDS011;8817;48.170;8.592;2023-04-12T11:57:33;5.15;;;4.95;;
17398;SDS011;8817;48.170;8.592;2023-04-12T12:00:00;5.10;;;5.00;;
17398;SDS011;8817;48.170;8.592;2023-04-12T12:02:31;5.13;;;5.03;;
17398;SDS011;8817;48.170;8.592;2023-04-12T12:04:59;5.23;;;4.93;;
17398;SDS011;8817;48.170;8.592;2023-04-12T12:07:27;5.00;;;4.90;;
17398;SDS011;8817;48.170;8.592;2023-04-12T12:09:54;5.05;;;4.85;;
17398;SDS011;8817;48.170;8.592;2023-04-12T12:12:22;4.80;;;4.70;;
17398;SDS011;8817;48.170;8.592;2023-04-12T12:14:49;4.87;;;4.77;;
17398;SDS011;8817;48.170;8.592;2023-04-12T12:17:16;4.60;;;4.50;;
17398;SDS011;8817;48.170;8.592;2023-04-12T12:19:44;4.70;;;4.60;;
17398;SDS011;8817;48.170;8.592;2023-04-12T12:22:13;4.60;;;4.50;;
17398;SDS011;8817;48.170;8.592;2023-04-12T12:24:46;5.10;;;4.90;;
17398;SDS011;8817;48.170;8.592;2023-04-12T12:27:19;4.90;;;4.80;;
17398;SDS011;8817;48.170;8.592;2023-04-12T12:29:48;4.50;;;4.40;;
17398;SDS011;8817;48.170;8.592;2023-04-12T12:32:17;4.60;;;4.50;;
17398;SDS011;8817;48.170;8.592;2023-04-12T12:34:51;4.70;;;4.60;;
17398;SDS011;8817;48.170;8.592;2023-04-12T12:37:20;4.60;;;4.50;;
17398;SDS011;8817;48.170;8.592;2023-04-12T12:40:00;4.70;;;4.60;;
17398;SDS011;8817;48.170;8.592;2023-04-12T12:42:32;4.70;;;4.60;;
17398;SDS011;8817;48.170;8.592;2023-04-12T12:44:59;4.63;;;4.43;;
17398;SDS011;8817;48.170;8.592;2023-04-12T12:47:28;4.68;;;4.57;;
17398;SDS011;8817;48.170;8.592;2023-04-12T12:49:55;4.70;;;4.60;;
17398;SDS011;8817;48.170;8.592;2023-04-12T12:52:22;4.97;;;4.78;;
17398;SDS011;8817;48.170;8.592;2023-04-12T12:54:50;4.80;;;4.70;;
17398;SDS011;8817;48.170;8.592;2023-04-12T12:57:18;4.60;;;4.50;;
17398;SDS011;8817;48.170;8.592;2023-04-12T12:59:45;4.80;;;4.70;;
17398;SDS011;8817;48.170;8.592;2023-04-12T13:02:12;4.65;;;4.55;;
17398;SDS011;8817;48.170;8.592;2023-04-12T13:04:39;4.95;;;4.85;;
17398;SDS011;8817;48.170;8.592;2023-04-12T13:07:07;4.70;;;4.60;;
17398;SDS011;8817;48.170;8.592;2023-04-12T13:09:33;5.25;;;4.95;;
17398;SDS011;8817;48.170;8.592;2023-04-12T13:12:00;4.82;;;4.70;;
17398;SDS011;8817;48.170;8.592;2023-04-12T13:14:29;4.57;;;4.47;;
17398;SDS011;8817;48.170;8.592;2023-04-12T13:16:56;4.72;;;4.63;;
17398;SDS011;8817;48.170;8.592;2023-04-12T13:19:23;4.70;;;4.60;;
17398;SDS011;8817;48.170;8.592;2023-04-12T13:21:50;4.68;;;4.47;;
17398;SDS011;8817;48.170;8.592;2023-04-12T13:24:16;4.70;;;4.60;;
17398;SDS011;8817;48.170;8.592;2023-04-12T13:26:43;4.65;;;4.55;;
17398;SDS011;8817;48.170;8.592;2023-04-12T13:29:11;4.90;;;4.55;;
17398;SDS011;8817;48.170;8.592;2023-04-12T13:31:39;4.70;;;4.60;;
17398;SDS011;8817;48.170;8.592;2023-04-12T13:34:06;4.65;;;4.55;;
17398;SDS011;8817;48.170;8.592;2023-04-12T13:36:33;4.60;;;4.50;;
17398;SDS011;8817;48.170;8.592;2023-04-12T13:38:59;4.40;;;4.30;;
17398;SDS011;8817;48.170;8.592;2023-04-12T13:41:26;4.70;;;4.60;;
17398;SDS011;8817;48.170;8.592;2023-04-12T13:43:55;4.55;;;4.45;;
17398;SDS011;8817;48.170;8.592;2023-04-12T13:46:22;4.60;;;4.50;;
17398;SDS011;8817;48.170;8.592;2023-04-12T13:48:50;5.03;;;4.93;;
17398;SDS011;8817;48.170;8.592;2023-04-12T13:51:17;4.50;;;4.40;;
17398;SDS011;8817;48.170;8.592;2023-04-12T13:53:44;4.63;;;4.53;;
17398;SDS011;8817;48.170;8.592;2023-04-12T13:56:11;4.80;;;4.70;;
17398;SDS011;8817;48.170;8.592;2023-04-12T13:58:37;5.10;;;4.90;;
17398;SDS011;8817;48.170;8.592;2023-04-12T14:01:04;4.50;;;4.40;;
17398;SDS011;8817;48.170;8.592;2023-04-12T14:03:31;4.78;;;4.60;;
17398;SDS011;8817;48.170;8.592;2023-04-12T14:05:59;4.78;;;4.60;;
17398;SDS011;8817;48.170;8.592;2023-04-12T14:08:27;5.13;;;4.77;;
17398;SDS011;8817;48.170;8.592;2023-04-12T14:10:54;4.80;;;4.60;;
17398;SDS011;8817;48.170;8.592;2023-04-12T14:13:21;4.30;;;4.20;;
17398;SDS011;8817;48.170;8.592;2023-04-12T14:15:48;4.40;;;4.30;;
17398;SDS011;8817;48.170;8.592;2023-04-12T14:18:16;4.32;;;4.22;;
17398;SDS011;8817;48.170;8.592;2023-04-12T14:20:43;4.40;;;4.30;;
17398;SDS011;8817;48.170;8.592;2023-04-12T14:23:16;4.45;;;4.32;;
17398;SDS011;8817;48.170;8.592;2023-04-12T14:25:43;4.63;;;4.50;;
17398;SDS011;8817;48.170;8.592;2023-04-12T14:28:10;5.03;;;4.60;;
17398;SDS011;8817;48.170;8.592;2023-04-12T14:30:40;4.40;;;4.30;;
17398;SDS011;8817;48.170;8.592;2023-04-12T14:33:07;4.40;;;4.30;;
17398;SDS011;8817;48.170;8.592;2023-04-12T14:35:34;4.50;;;4.40;;
17398;SDS011;8817;48.170;8.592;2023-04-12T14:38:01;4.45;;;4.35;;
17398;SDS011;8817;48.170;8.592;2023-04-12T14:40:30;4.40;;;4.30;;
17398;SDS011;8817;48.170;8.592;2023-04-12T14:42:56;4.40;;;4.30;;
17398;SDS011;8817;48.170;8.592;2023-04-12T14:45:23;4.20;;;4.20;;
17398;SDS011;8817;48.170;8.592;2023-04-12T14:47:51;4.68;;;4.50;;
17398;SDS011;8817;48.170;8.592;2023-04-12T14:50:18;4.10;;;4.10;;
17398;SDS011;8817;48.170;8.592;2023-04-12T14:52:45;4.53;;;4.43;;
17398;SDS011;8817;48.170;8.592;2023-04-12T14:55:12;4.10;;;4.10;;
17398;SDS011;8817;48.170;8.592;2023-04-12T14:57:40;4.38;;;4.28;;
17398;SDS011;8817;48.170;8.592;2023-04-12T15:00:07;4.57;;;4.47;;
17398;SDS011;8817;48.170;8.592;2023-04-12T15:02:38;4.50;;;4.40;;
17398;SDS011;8817;48.170;8.592;2023-04-12T15:05:06;4.90;;;4.63;;
17398;SDS011;8817;48.170;8.592;2023-04-12T15:07:33;4.30;;;4.20;;
17398;SDS011;8817;48.170;8.592;2023-04-12T15:10:01;4.50;;;4.40;;
17398;SDS011;8817;48.170;8.592;2023-04-12T15:12:29;4.60;;;4.50;;
17398;SDS011;8817;48.170;8.592;2023-04-12T15:14:58;4.50;;;4.40;;